createdAt,value
2018-09-09T00:00:15.472Z,61.60
2018-09-09T00:03:48.954Z,61.50
2018-09-09T00:07:22.166Z,61.30
2018-09-09T00:10:55.399Z,61.50
2018-09-09T00:14:28.619Z,61.50
2018-09-09T00:18:01.855Z,61.40
2018-09-09T00:21:35.070Z,61.50
2018-09-09T00:25:08.288Z,61.50
2018-09-09T00:28:41.512Z,61.90
2018-09-09T00:32:14.749Z,62.50
2018-09-09T00:35:48.048Z,63.00
2018-09-09T00:39:21.279Z,63.50
2018-09-09T00:42:54.475Z,63.00
2018-09-09T00:46:27.679Z,62.80
2018-09-09T00:50:06.271Z,62.70
2018-09-09T00:53:43.867Z,62.40
2018-09-09T00:57:17.237Z,62.40
2018-09-09T01:00:55.892Z,62.30
2018-09-09T01:04:29.091Z,61.90
2018-09-09T01:08:02.738Z,61.90
2018-09-09T01:11:35.939Z,61.70
2018-09-09T01:15:09.130Z,62.00
2018-09-09T01:18:42.326Z,62.00
2018-09-09T01:22:15.534Z,62.40
2018-09-09T01:25:48.734Z,62.50
2018-09-09T01:29:22.079Z,62.60
2018-09-09T01:32:55.276Z,62.90
2018-09-09T01:36:28.476Z,62.70
2018-09-09T01:40:01.747Z,62.60
2018-09-09T01:43:34.935Z,62.70
2018-09-09T01:47:08.131Z,62.60
2018-09-09T01:50:41.326Z,62.90
2018-09-09T01:54:14.531Z,63.00
2018-09-09T01:57:47.770Z,63.10
2018-09-09T02:01:21.026Z,63.30
2018-09-09T02:04:54.213Z,63.50
2018-09-09T02:08:27.436Z,63.80
2018-09-09T02:12:00.638Z,64.20
2018-09-09T02:15:33.823Z,64.80
2018-09-09T02:19:07.021Z,65.20
2018-09-09T02:22:40.242Z,65.30
2018-09-09T02:26:13.522Z,65.20
2018-09-09T02:29:46.715Z,65.30
2018-09-09T02:33:19.910Z,65.40
2018-09-09T02:36:53.124Z,65.20
2018-09-09T02:40:26.306Z,65.20
2018-09-09T02:43:59.502Z,65.40
2018-09-09T02:47:32.990Z,65.50
2018-09-09T02:51:06.532Z,65.90
2018-09-09T02:54:39.739Z,66.00
2018-09-09T02:58:13.797Z,66.00
2018-09-09T03:01:47.190Z,66.40
2018-09-09T03:05:20.370Z,66.80
2018-09-09T03:08:53.573Z,66.90
2018-09-09T03:12:26.791Z,67.20
2018-09-09T03:16:00.159Z,67.70
2018-09-09T03:19:33.365Z,67.90
2018-09-09T03:23:06.690Z,67.70
2018-09-09T03:26:40.014Z,67.50
2018-09-09T03:30:13.480Z,67.30
2018-09-09T03:33:46.880Z,67.30
2018-09-09T03:37:20.095Z,67.30
2018-09-09T03:40:53.347Z,67.40
2018-09-09T03:44:26.543Z,67.60
2018-09-09T03:47:59.742Z,68.00
2018-09-09T03:51:32.947Z,68.30
2018-09-09T03:55:06.187Z,68.30
2018-09-09T03:58:39.381Z,68.40
2018-09-09T04:02:12.587Z,68.50
2018-09-09T04:05:45.794Z,68.70
2018-09-09T04:09:18.994Z,69.00
2018-09-09T04:12:52.192Z,70.00
2018-09-09T04:16:25.387Z,69.40
2018-09-09T04:19:58.575Z,69.40
2018-09-09T04:23:31.767Z,69.40
2018-09-09T04:27:04.988Z,69.70
2018-09-09T04:30:38.204Z,70.30
2018-09-09T04:34:11.467Z,70.40
2018-09-09T04:37:44.679Z,70.20
2018-09-09T04:41:17.903Z,70.00
2018-09-09T04:44:51.099Z,69.80
2018-09-09T04:48:24.317Z,69.80
2018-09-09T04:51:57.519Z,69.90
2018-09-09T04:55:30.743Z,69.30
2018-09-09T04:59:03.938Z,69.10
2018-09-09T05:02:37.146Z,69.00
2018-09-09T05:06:10.368Z,69.00
2018-09-09T05:09:43.575Z,68.80
2018-09-09T05:13:16.771Z,68.70
2018-09-09T05:16:49.980Z,68.60
2018-09-09T05:20:23.183Z,68.80
2018-09-09T05:23:56.370Z,68.80
2018-09-09T05:27:29.875Z,69.10
2018-09-09T05:31:03.089Z,68.90
2018-09-09T05:34:36.282Z,70.70
2018-09-09T05:38:09.463Z,70.30
2018-09-09T05:41:42.660Z,70.30
2018-09-09T05:45:15.864Z,70.20
2018-09-09T05:48:49.139Z,70.90
2018-09-09T05:52:22.346Z,71.50
2018-09-09T05:55:56.177Z,71.90
2018-09-09T05:59:29.412Z,72.20
2018-09-09T06:03:02.597Z,72.50
2018-09-09T06:06:35.800Z,72.60
2018-09-09T06:10:09.594Z,72.90
2018-09-09T06:13:42.783Z,72.80
2018-09-09T06:17:16.027Z,72.80
2018-09-09T06:20:49.253Z,72.90
2018-09-09T06:24:22.856Z,72.80
2018-09-09T06:27:56.443Z,72.70
2018-09-09T06:31:30.011Z,72.60
2018-09-09T06:35:03.230Z,72.40
2018-09-09T06:38:36.441Z,72.20
2018-09-09T06:42:09.627Z,72.10
2018-09-09T06:45:42.876Z,71.70
2018-09-09T06:49:16.090Z,71.40
2018-09-09T06:52:49.300Z,71.00
2018-09-09T06:56:22.495Z,70.50
2018-09-09T06:59:55.712Z,70.40
2018-09-09T07:03:28.937Z,70.10
2018-09-09T07:07:02.144Z,70.10
2018-09-09T07:10:35.362Z,70.00
2018-09-09T07:14:08.820Z,69.30
2018-09-09T07:17:42.072Z,68.90
2018-09-09T07:21:15.295Z,68.40
2018-09-09T07:24:48.506Z,68.20
2018-09-09T07:28:21.723Z,67.50
2018-09-09T07:31:54.939Z,67.90
2018-09-09T07:35:28.156Z,66.80
2018-09-09T07:39:01.369Z,66.50
2018-09-09T07:42:34.596Z,66.10
2018-09-09T07:46:07.798Z,65.40
2018-09-09T07:49:41.089Z,64.80
2018-09-09T07:53:14.328Z,64.20
2018-09-09T07:56:47.547Z,63.60
2018-09-09T08:00:20.789Z,63.30
2018-09-09T08:03:54.053Z,63.20
2018-09-09T08:07:27.616Z,63.00
2018-09-09T08:11:00.828Z,62.70
2018-09-09T08:14:34.059Z,62.20
2018-09-09T08:18:08.297Z,61.50
2018-09-09T08:21:41.516Z,61.10
2018-09-09T08:25:14.739Z,60.80
2018-09-09T08:28:47.967Z,60.60
2018-09-09T08:32:21.199Z,60.20
2018-09-09T08:35:54.419Z,59.90
2018-09-09T08:39:27.655Z,59.60
2018-09-09T08:43:00.910Z,58.80
2018-09-09T08:46:34.130Z,59.10
2018-09-09T08:50:07.367Z,58.70
2018-09-09T08:53:40.704Z,58.10
2018-09-09T08:57:13.936Z,57.70
2018-09-09T09:00:47.191Z,57.50
2018-09-09T09:04:20.414Z,57.10
2018-09-09T09:07:53.773Z,56.40
2018-09-09T09:11:26.866Z,55.90
2018-09-09T09:15:00.091Z,55.10
2018-09-09T09:18:33.361Z,54.50
2018-09-09T09:22:07.168Z,54.20
2018-09-09T09:25:44.625Z,53.40
2018-09-09T09:29:17.900Z,53.20
2018-09-09T09:32:51.105Z,52.50
2018-09-09T09:36:24.400Z,52.10
2018-09-09T09:39:57.622Z,52.10
2018-09-09T09:43:30.836Z,49.80
2018-09-09T09:47:04.050Z,49.40
2018-09-09T09:50:37.263Z,47.60
2018-09-09T09:54:10.485Z,46.30
2018-09-09T09:57:43.711Z,46.00
2018-09-09T10:01:16.917Z,46.20
2018-09-09T10:04:50.135Z,46.50
2018-09-09T10:08:23.412Z,46.70
2018-09-09T10:11:56.613Z,45.90
2018-09-09T10:15:29.848Z,45.70
2018-09-09T10:19:03.055Z,44.30
2018-09-09T10:22:36.271Z,44.50
2018-09-09T10:26:09.483Z,44.20
2018-09-09T10:29:42.703Z,44.10
2018-09-09T10:33:15.941Z,43.90
2018-09-09T10:36:49.130Z,43.50
2018-09-09T10:40:22.339Z,43.80
2018-09-09T10:43:55.559Z,43.70
2018-09-09T10:47:28.770Z,43.60
2018-09-09T10:51:02.247Z,43.40
2018-09-09T10:54:35.509Z,43.60
2018-09-09T10:58:08.725Z,43.50
2018-09-09T11:01:42.004Z,43.10
2018-09-09T11:05:15.213Z,42.90
2018-09-09T11:08:48.427Z,42.40
2018-09-09T11:12:26.896Z,42.00
2018-09-09T11:16:00.053Z,42.00
2018-09-09T11:19:33.273Z,42.00
2018-09-09T11:23:06.483Z,41.40
2018-09-09T11:26:39.703Z,41.20
2018-09-09T11:30:12.919Z,40.60
2018-09-09T11:33:46.139Z,40.80
2018-09-09T11:37:19.352Z,40.50
2018-09-09T11:40:52.556Z,39.80
2018-09-09T11:44:25.773Z,38.40
2018-09-09T11:47:58.985Z,37.90
2018-09-09T11:51:32.492Z,37.20
2018-09-09T11:55:05.853Z,37.30
2018-09-09T11:58:39.079Z,37.00
2018-09-09T12:02:12.286Z,36.70
2018-09-09T12:05:45.504Z,35.90
2018-09-09T12:09:18.707Z,35.40
2018-09-09T12:12:51.922Z,34.50
2018-09-09T12:16:25.128Z,32.60
2018-09-09T12:19:58.342Z,32.20
2018-09-09T12:23:31.555Z,32.60
2018-09-09T12:27:04.800Z,32.30
2018-09-09T12:30:38.019Z,31.80
2018-09-09T12:34:11.220Z,32.40
2018-09-09T12:37:44.438Z,32.50
2018-09-09T12:41:17.662Z,31.90
2018-09-09T12:44:56.196Z,32.20
2018-09-09T12:48:34.841Z,33.30
2018-09-09T12:52:08.060Z,33.70
2018-09-09T12:55:41.271Z,33.10
2018-09-09T12:59:14.475Z,33.10
2018-09-09T13:02:47.719Z,33.40
2018-09-09T13:06:20.985Z,32.80
2018-09-09T13:09:54.199Z,32.80
2018-09-09T13:13:27.438Z,32.20
2018-09-09T13:17:00.675Z,32.50
2018-09-09T13:20:33.883Z,32.30
2018-09-09T13:24:07.107Z,32.40
2018-09-09T13:27:40.316Z,32.50
2018-09-09T13:31:13.530Z,32.60
2018-09-09T13:34:47.575Z,32.60
2018-09-09T13:38:20.840Z,32.50
2018-09-09T13:41:54.040Z,32.50
2018-09-09T13:45:27.235Z,32.20
2018-09-09T13:49:00.447Z,32.00
2018-09-09T13:52:33.691Z,31.40
2018-09-09T13:56:06.908Z,31.10
2018-09-09T13:59:40.124Z,31.20
2018-09-09T14:03:13.344Z,31.30
2018-09-09T14:06:46.587Z,31.20
2018-09-09T14:10:19.780Z,31.20
2018-09-09T14:13:52.993Z,31.30
2018-09-09T14:17:26.217Z,31.30
2018-09-09T14:20:59.435Z,31.10
2018-09-09T14:24:32.619Z,31.20
2018-09-09T14:28:05.829Z,31.30
2018-09-09T14:31:39.081Z,31.30
2018-09-09T14:35:12.408Z,31.30
2018-09-09T14:38:45.656Z,31.00
2018-09-09T14:42:18.881Z,30.90
2018-09-09T14:45:52.084Z,30.80
2018-09-09T14:49:26.354Z,30.70
2018-09-09T14:52:59.615Z,30.40
2018-09-09T14:56:32.836Z,30.00
2018-09-09T15:00:06.096Z,30.10
2018-09-09T15:03:39.323Z,30.10
2018-09-09T15:07:12.529Z,30.00
2018-09-09T15:10:45.734Z,29.80
2018-09-09T15:14:18.979Z,29.70
2018-09-09T15:17:52.205Z,29.80
2018-09-09T15:21:25.482Z,30.00
2018-09-09T15:24:58.756Z,30.00
2018-09-09T15:28:31.976Z,30.30
2018-09-09T15:32:05.190Z,30.00
2018-09-09T15:35:38.411Z,30.00
2018-09-09T15:39:11.627Z,30.20
2018-09-09T15:42:44.855Z,30.10
2018-09-09T15:46:18.068Z,30.50
2018-09-09T15:49:51.320Z,30.80
2018-09-09T15:53:24.544Z,30.90
2018-09-09T15:56:57.765Z,31.50
2018-09-09T16:00:31.012Z,31.60
2018-09-09T16:04:04.205Z,31.90
2018-09-09T16:07:37.415Z,32.00
2018-09-09T16:11:10.663Z,32.30
2018-09-09T16:14:43.864Z,32.40
2018-09-09T16:18:17.077Z,32.40
2018-09-09T16:21:50.283Z,31.80
2018-09-09T16:25:23.492Z,31.70
2018-09-09T16:28:57.096Z,31.90
2018-09-09T16:32:30.330Z,32.30
2018-09-09T16:36:03.543Z,32.40
2018-09-09T16:39:36.841Z,32.90
2018-09-09T16:43:10.051Z,33.00
2018-09-09T16:46:43.371Z,33.40
2018-09-09T16:50:16.904Z,33.30
2018-09-09T16:53:50.141Z,33.90
2018-09-09T16:57:23.539Z,34.10
2018-09-09T17:00:56.754Z,34.30
2018-09-09T17:04:29.957Z,34.60
2018-09-09T17:08:03.238Z,34.90
2018-09-09T17:11:36.801Z,35.30
2018-09-09T17:15:10.306Z,35.60
2018-09-09T17:18:43.535Z,35.90
2018-09-09T17:22:17.625Z,36.30
2018-09-09T17:25:50.871Z,36.60
2018-09-09T17:29:24.083Z,36.70
2018-09-09T17:32:57.308Z,37.00
2018-09-09T17:36:30.528Z,37.10
2018-09-09T17:40:03.764Z,37.50
2018-09-09T17:43:36.998Z,37.70
2018-09-09T17:47:10.230Z,37.90
2018-09-09T17:50:43.439Z,38.10
2018-09-09T17:54:17.127Z,38.60
2018-09-09T17:57:50.327Z,39.20
2018-09-09T18:01:23.857Z,39.40
2018-09-09T18:04:57.048Z,39.60
2018-09-09T18:08:30.276Z,39.70
2018-09-09T18:12:03.479Z,40.10
2018-09-09T18:15:37.095Z,40.50
2018-09-09T18:19:10.899Z,40.80
2018-09-09T18:22:44.100Z,41.20
2018-09-09T18:26:17.379Z,41.50
2018-09-09T18:29:50.674Z,41.60
2018-09-09T18:33:23.968Z,41.70
2018-09-09T18:36:57.181Z,42.00
2018-09-09T18:40:30.760Z,42.00
2018-09-09T18:44:04.307Z,42.10
2018-09-09T18:47:37.651Z,42.30
2018-09-09T18:51:10.942Z,42.40
2018-09-09T18:54:44.179Z,42.80
2018-09-09T18:58:17.795Z,42.80
2018-09-09T19:01:51.007Z,42.90
2018-09-09T19:05:24.718Z,43.20
2018-09-09T19:08:57.975Z,43.50
2018-09-09T19:12:31.202Z,43.70
2018-09-09T19:16:04.415Z,44.90
2018-09-09T19:19:37.624Z,44.60
2018-09-09T19:23:10.830Z,44.90
2018-09-09T19:26:44.047Z,45.20
2018-09-09T19:30:17.263Z,45.40
2018-09-09T19:33:50.456Z,45.60
2018-09-09T19:37:23.822Z,46.10
2018-09-09T19:40:57.034Z,45.90
2018-09-09T19:44:30.228Z,46.40
2018-09-09T19:48:03.455Z,47.00
2018-09-09T19:51:36.764Z,47.20
2018-09-09T19:55:10.019Z,47.50
2018-09-09T19:58:43.318Z,47.60
2018-09-09T20:02:16.613Z,47.90
2018-09-09T20:05:50.336Z,48.00
2018-09-09T20:09:23.603Z,48.50
2018-09-09T20:12:56.827Z,48.70
2018-09-09T20:16:30.032Z,48.80
2018-09-09T20:20:03.256Z,49.40
2018-09-09T20:23:36.470Z,50.10
2018-09-09T20:27:09.688Z,50.60
2018-09-09T20:30:42.971Z,50.80
2018-09-09T20:34:16.322Z,50.90
2018-09-09T20:37:50.086Z,51.00
2018-09-09T20:41:23.319Z,51.20
2018-09-09T20:44:56.582Z,51.70
2018-09-09T20:48:29.921Z,51.60
2018-09-09T20:52:03.191Z,51.70
2018-09-09T20:55:36.413Z,52.50
2018-09-09T20:59:09.674Z,52.00
2018-09-09T21:02:42.872Z,52.40
2018-09-09T21:06:16.075Z,52.80
2018-09-09T21:09:49.315Z,53.10
2018-09-09T21:13:22.510Z,53.80
2018-09-09T21:16:56.040Z,54.40
2018-09-09T21:20:29.239Z,54.60
2018-09-09T21:24:02.436Z,54.90
2018-09-09T21:27:35.975Z,55.10
2018-09-09T21:31:09.209Z,55.30
2018-09-09T21:34:42.411Z,55.60
2018-09-09T21:38:15.610Z,55.80
2018-09-09T21:41:51.865Z,55.60
2018-09-09T21:45:25.103Z,55.80
2018-09-09T21:48:58.306Z,56.70
2018-09-09T21:52:31.503Z,56.50
2018-09-09T21:56:04.718Z,56.90
2018-09-09T21:59:37.914Z,57.50
2018-09-09T22:03:11.118Z,57.50
2018-09-09T22:06:44.307Z,57.70
2018-09-09T22:10:17.526Z,58.30
2018-09-09T22:13:50.736Z,58.60
2018-09-09T22:17:23.957Z,58.80
2018-09-09T22:20:57.188Z,59.10
2018-09-09T22:24:30.462Z,59.50
2018-09-09T22:28:03.694Z,59.80
2018-09-09T22:31:36.871Z,60.00
2018-09-09T22:35:10.109Z,60.40
2018-09-09T22:38:43.318Z,60.40
2018-09-09T22:42:16.513Z,60.30
2018-09-09T22:45:51.288Z,60.30
2018-09-09T22:49:24.482Z,60.60
2018-09-09T22:52:57.695Z,61.10
2018-09-09T22:56:30.900Z,61.40
2018-09-09T23:00:04.585Z,61.60
2018-09-09T23:03:37.781Z,61.80
2018-09-09T23:07:10.980Z,61.70
2018-09-09T23:10:44.175Z,61.90
2018-09-09T23:14:17.374Z,62.50
2018-09-09T23:17:50.576Z,62.90
2018-09-09T23:21:23.772Z,63.00
2018-09-09T23:24:57.090Z,62.90
2018-09-09T23:28:30.287Z,62.70
2018-09-09T23:32:03.500Z,62.60
2018-09-09T23:35:36.723Z,62.70
2018-09-09T23:39:11.015Z,62.80
2018-09-09T23:42:44.211Z,62.90
2018-09-09T23:46:17.397Z,63.00
2018-09-09T23:49:50.586Z,63.20
2018-09-09T23:53:23.816Z,63.20
2018-09-09T23:56:57.064Z,63.50
